Time;durP1;ratioP1;P1;durP2;ratioP2;P2;SDS_P1;SDS_P2;PMS_P1;PMS_P2;Temp;Humidity;BMP_temperature;BMP_pressure;BME280_temperature;BME280_humidity;BME280_pressure;Samples;Min_cycle;Max_cycle;Signal;HPM_P1;HPM_P2
2022/03/22 00:00:45;;;;;;;7.82;4.20;;;8.40;25.80;;;;;;4955946;28;20472;-74
2022/03/22 00:03:11;;;;;;;6.20;4.20;;;8.40;26.00;;;;;;4969093;28;20031;-74
2022/03/22 00:05:42;;;;;;;6.90;4.50;;;8.30;26.10;;;;;;4955470;28;20050;-74
2022/03/22 00:08:09;;;;;;;10.32;4.50;;;8.20;26.50;;;;;;4968716;28;20050;-74
2022/03/22 00:10:36;;;;;;;8.27;4.45;;;8.20;26.60;;;;;;4955833;28;20116;-74
2022/03/22 00:13:05;;;;;;;6.47;4.57;;;8.10;26.70;;;;;;4955882;28;20035;-74
2022/03/22 00:15:34;;;;;;;7.07;4.10;;;8.00;26.90;;;;;;4955478;28;20031;-74
2022/03/22 00:18:00;;;;;;;11.45;4.53;;;8.00;26.70;;;;;;4955919;28;20106;-74
2022/03/22 00:20:27;;;;;;;7.72;4.82;;;7.90;26.80;;;;;;4955794;28;20031;-74
2022/03/22 00:22:54;;;;;;;7.25;4.10;;;7.80;27.00;;;;;;4955795;28;20027;-74
2022/03/22 00:25:20;;;;;;;10.93;5.30;;;7.80;27.30;;;;;;4970448;28;20165;-74
2022/03/22 00:27:52;;;;;;;7.40;4.47;;;7.70;27.10;;;;;;4955457;28;20023;-74
2022/03/22 00:30:24;;;;;;;7.85;4.25;;;7.70;27.20;;;;;;4955649;28;20023;-74
2022/03/22 00:32:54;;;;;;;11.30;5.10;;;7.70;27.60;;;;;;4955107;28;20500;-74
2022/03/22 00:35:24;;;;;;;10.10;4.60;;;7.60;27.50;;;;;;4955533;28;20039;-74
2022/03/22 00:37:52;;;;;;;6.93;4.60;;;7.60;27.80;;;;;;4954380;29;20058;-74
2022/03/22 00:40:18;;;;;;;9.60;5.40;;;7.60;27.80;;;;;;4955494;28;20023;-73
2022/03/22 00:42:48;;;;;;;7.45;4.75;;;7.50;28.20;;;;;;4955633;28;20031;-74
2022/03/22 00:45:18;;;;;;;6.93;4.47;;;7.50;28.30;;;;;;4955485;28;20020;-74
2022/03/22 00:47:49;;;;;;;10.18;4.20;;;7.50;27.80;;;;;;4961682;28;20428;-74
2022/03/22 00:50:16;;;;;;;11.32;5.22;;;7.50;28.00;;;;;;4957834;28;20067;-74
2022/03/22 00:52:43;;;;;;;6.68;4.20;;;7.40;28.00;;;;;;4953716;28;20430;-74
2022/03/22 00:55:12;;;;;;;10.30;4.53;;;7.40;28.00;;;;;;4955000;28;20035;-74
2022/03/22 00:57:38;;;;;;;8.18;4.35;;;7.40;28.10;;;;;;4955131;28;20050;-74
2022/03/22 01:00:07;;;;;;;14.82;7.65;;;7.40;28.10;;;;;;4955199;28;20031;-74
2022/03/22 01:02:39;;;;;;;21.75;10.68;;;7.30;28.10;;;;;;4954859;28;20015;-74
2022/03/22 01:05:08;;;;;;;14.85;7.68;;;7.40;27.80;;;;;;4955178;28;20057;-74
2022/03/22 01:07:35;;;;;;;14.20;7.07;;;7.40;27.70;;;;;;4954883;28;20034;-74
2022/03/22 01:10:05;;;;;;;12.55;6.13;;;7.40;28.10;;;;;;4969895;28;20078;-73
2022/03/22 01:12:32;;;;;;;9.95;5.30;;;7.40;27.90;;;;;;4954204;28;20062;-74
2022/03/22 01:14:58;;;;;;;8.32;4.60;;;7.40;27.70;;;;;;4954638;29;20389;-74
2022/03/22 01:17:23;;;;;;;7.88;4.57;;;7.50;27.50;;;;;;4953908;29;20114;-74
2022/03/22 01:19:49;;;;;;;7.55;4.00;;;7.60;27.30;;;;;;4954936;28;20464;-74
2022/03/22 01:22:16;;;;;;;7.78;4.40;;;7.60;27.30;;;;;;4954751;28;20031;-73
2022/03/22 01:24:43;;;;;;;8.63;5.13;;;7.70;27.30;;;;;;4954946;28;20031;-73
2022/03/22 01:27:10;;;;;;;6.97;4.25;;;7.70;27.00;;;;;;4954618;28;20034;-74
2022/03/22 01:29:37;;;;;;;7.55;4.35;;;7.70;27.10;;;;;;4953599;29;20035;-74
2022/03/22 01:32:04;;;;;;;12.65;4.72;;;7.80;27.00;;;;;;4954829;29;20062;-74
2022/03/22 01:34:30;;;;;;;11.90;4.90;;;7.80;27.10;;;;;;4954664;28;20489;-73
2022/03/22 01:36:56;;;;;;;10.15;4.63;;;7.80;27.00;;;;;;4954847;28;20059;-74
2022/03/22 01:39:21;;;;;;;8.43;4.70;;;7.80;26.90;;;;;;4954352;28;20574;-74
2022/03/22 01:41:47;;;;;;;8.93;5.20;;;7.90;26.90;;;;;;4954678;29;20023;-74
2022/03/22 01:44:13;;;;;;;8.20;4.35;;;7.80;26.80;;;;;;4953298;28;20424;-74
2022/03/22 01:46:39;;;;;;;8.60;4.45;;;7.90;26.90;;;;;;4947301;28;20028;-74
2022/03/22 01:49:05;;;;;;;6.07;3.92;;;7.90;27.00;;;;;;4954506;28;20026;-74
2022/03/22 01:51:32;;;;;;;8.90;4.97;;;7.90;26.70;;;;;;4954651;29;20385;-74
2022/03/22 01:53:58;;;;;;;7.57;4.75;;;7.90;26.70;;;;;;4954540;28;20473;-74
2022/03/22 01:56:25;;;;;;;6.82;3.72;;;7.90;26.70;;;;;;4953392;28;20046;-74
2022/03/22 01:58:51;;;;;;;9.23;4.40;;;7.90;26.40;;;;;;4954381;28;20059;-74
2022/03/22 02:06:54;;;;;;;9.55;5.03;;;7.90;26.70;;;;;;4954445;29;20498;-74
2022/03/22 02:09:19;;;;;;;7.22;4.50;;;7.90;26.50;;;;;;4952827;28;20031;-74
2022/03/22 02:11:45;;;;;;;6.68;3.97;;;7.90;26.40;;;;;;4957982;28;20035;-74
2022/03/22 02:14:11;;;;;;;6.95;3.83;;;7.90;26.20;;;;;;4972653;28;20110;-73
2022/03/22 02:16:37;;;;;;;4.55;3.28;;;7.90;26.50;;;;;;4958063;28;20034;-74
2022/03/22 02:19:07;;;;;;;7.70;3.80;;;7.90;26.50;;;;;;4956249;28;20035;-74
2022/03/22 02:21:35;;;;;;;7.10;3.67;;;7.90;26.70;;;;;;4957454;29;20046;-73
2022/03/22 02:24:00;;;;;;;6.57;3.80;;;7.80;26.70;;;;;;4957262;29;20529;-74
2022/03/22 02:26:27;;;;;;;4.88;3.38;;;7.80;26.70;;;;;;4956587;29;20027;-74
2022/03/22 02:28:54;;;;;;;6.65;3.95;;;7.70;26.80;;;;;;4957978;28;20473;-74
2022/03/22 02:31:24;;;;;;;6.05;4.07;;;7.70;26.90;;;;;;4957958;28;20110;-74
2022/03/22 02:33:50;;;;;;;11.38;4.28;;;7.60;26.90;;;;;;4957668;28;20145;-74
2022/03/22 02:36:16;;;;;;;7.25;4.38;;;7.60;27.00;;;;;;4957860;28;20036;-74
2022/03/22 02:38:42;;;;;;;6.40;3.70;;;7.50;26.80;;;;;;4971848;28;20039;-74
2022/03/22 02:41:18;;;;;;;7.18;4.50;;;7.50;26.70;;;;;;4957122;28;20065;-74
2022/03/22 02:43:46;;;;;;;9.85;4.22;;;7.50;26.40;;;;;;4957752;28;20094;-74
2022/03/22 02:46:12;;;;;;;6.45;3.75;;;7.50;26.40;;;;;;4972622;28;20482;-73
2022/03/22 02:48:38;;;;;;;6.20;4.05;;;7.50;26.40;;;;;;4972464;28;20490;-73
2022/03/22 02:51:04;;;;;;;8.00;3.90;;;7.50;26.50;;;;;;4957616;28;20429;-74
2022/03/22 02:53:30;;;;;;;6.10;3.97;;;7.50;26.60;;;;;;4971989;28;20063;-74
2022/03/22 02:55:56;;;;;;;6.30;4.20;;;7.50;26.50;;;;;;4956269;29;20035;-74
2022/03/22 02:58:22;;;;;;;7.05;3.72;;;7.40;26.50;;;;;;4957236;28;20101;-73
2022/03/22 03:00:47;;;;;;;11.50;4.75;;;7.40;26.60;;;;;;4957395;28;20034;-73
2022/03/22 03:03:14;;;;;;;10.43;4.22;;;7.40;26.70;;;;;;4957407;28;20030;-74
2022/03/22 03:05:40;;;;;;;8.48;4.40;;;7.40;26.70;;;;;;4957661;28;20030;-74
2022/03/22 03:08:05;;;;;;;6.07;3.95;;;7.40;26.70;;;;;;4956536;28;20027;-74
2022/03/22 03:10:31;;;;;;;10.80;4.28;;;7.40;26.90;;;;;;4957296;28;20062;-74
2022/03/22 03:13:02;;;;;;;8.60;3.72;;;7.30;27.20;;;;;;4957292;28;20504;-74
2022/03/22 03:15:28;;;;;;;7.53;4.57;;;7.30;26.80;;;;;;4957287;28;20034;-74
2022/03/22 03:17:54;;;;;;;5.53;3.42;;;7.30;26.80;;;;;;4956541;29;20023;-73
2022/03/22 03:20:20;;;;;;;6.90;4.07;;;7.30;26.50;;;;;;4956793;28;20042;-74
2022/03/22 03:22:46;;;;;;;5.43;3.60;;;7.30;26.60;;;;;;4955895;28;20034;-74
2022/03/22 03:25:13;;;;;;;5.78;3.38;;;7.20;26.60;;;;;;4956821;29;20389;-74
2022/03/22 03:27:39;;;;;;;6.32;3.90;;;7.20;26.70;;;;;;4956520;28;20115;-74
2022/03/22 03:30:06;;;;;;;7.93;4.30;;;7.20;26.90;;;;;;4956690;28;20027;-74
2022/03/22 03:32:32;;;;;;;8.70;4.70;;;7.20;26.80;;;;;;4956781;28;20103;-73
2022/03/22 03:34:58;;;;;;;7.97;3.90;;;7.20;26.60;;;;;;4971331;28;20114;-74
2022/03/22 03:37:24;;;;;;;7.70;3.97;;;7.20;26.50;;;;;;4956437;28;20106;-73
2022/03/22 03:39:52;;;;;;;5.90;3.78;;;7.20;26.50;;;;;;4971340;28;20035;-74
2022/03/22 03:42:18;;;;;;;5.95;3.60;;;7.20;26.40;;;;;;4956613;28;20023;-73
2022/03/22 03:47:29;;;;;;;;;;;7.20;26.30;;;;;;4956850;29;20030;-73
2022/03/22 03:49:58;;;;;;;12.80;3.63;;;7.30;26.20;;;;;;4956390;28;19997;-74
2022/03/22 03:52:26;;;;;;;5.30;3.55;;;7.30;26.30;;;;;;4955182;29;20062;-74
2022/03/22 03:54:53;;;;;;;5.80;3.50;;;7.30;26.20;;;;;;4956371;28;20015;-74
2022/03/22 03:57:21;;;;;;;8.15;4.45;;;7.30;26.10;;;;;;4956365;28;20027;-74
2022/03/22 03:59:47;;;;;;;6.75;4.20;;;7.30;25.90;;;;;;4956252;28;20074;-74
2022/03/22 04:02:13;;;;;;;7.13;3.67;;;7.30;25.70;;;;;;4956011;28;20035;-74
2022/03/22 04:04:40;;;;;;;9.32;4.03;;;7.30;25.50;;;;;;4956264;28;20490;-73
2022/03/22 04:07:08;;;;;;;9.05;4.47;;;7.40;25.50;;;;;;4956038;28;20023;-74
2022/03/22 04:09:38;;;;;;;10.73;4.20;;;7.50;25.40;;;;;;4955843;28;20038;-73
2022/03/22 04:12:05;;;;;;;7.75;4.15;;;7.50;25.30;;;;;;4956008;28;20035;-73
2022/03/22 04:14:31;;;;;;;7.13;4.30;;;7.60;25.10;;;;;;4955689;29;20035;-74
2022/03/22 04:16:57;;;;;;;13.15;4.00;;;7.60;25.00;;;;;;4955743;28;20027;-74
2022/03/22 04:19:26;;;;;;;10.73;4.45;;;7.70;24.80;;;;;;4955764;28;20142;-74
2022/03/22 04:21:52;;;;;;;7.78;3.47;;;7.70;24.70;;;;;;4956145;28;20023;-74
2022/03/22 04:24:21;;;;;;;6.75;3.28;;;7.80;24.70;;;;;;4955994;28;20031;-74
2022/03/22 04:26:47;;;;;;;9.77;3.75;;;7.90;24.60;;;;;;4970668;28;20110;-74
2022/03/22 04:34:45;;;;;;;7.20;3.50;;;8.00;24.30;;;;;;4955673;29;20085;-74
2022/03/22 04:37:12;;;;;;;7.63;3.95;;;8.00;24.20;;;;;;4955266;28;20042;-73
2022/03/22 04:39:40;;;;;;;9.55;4.30;;;8.10;24.10;;;;;;4955401;28;20027;-74
2022/03/22 04:42:07;;;;;;;7.45;3.70;;;8.10;24.20;;;;;;4955165;29;20109;-74
2022/03/22 04:44:34;;;;;;;7.20;3.80;;;8.10;24.20;;;;;;4955359;28;20028;-74
2022/03/22 04:47:00;;;;;;;7.10;4.18;;;8.10;24.20;;;;;;4955389;28;20290;-74
2022/03/22 04:49:27;;;;;;;7.03;3.92;;;8.10;24.30;;;;;;4955362;28;20476;-74
2022/03/22 04:57:24;;;;;;;11.23;4.28;;;8.10;24.50;;;;;;4954593;29;20046;-74
2022/03/22 04:59:50;;;;;;;12.27;5.22;;;8.00;24.30;;;;;;4954880;28;20407;-74
2022/03/22 05:02:16;;;;;;;13.15;5.18;;;8.00;24.20;;;;;;4954793;28;20024;-74
2022/03/22 05:04:42;;;;;;;10.50;4.68;;;8.00;24.40;;;;;;4953660;29;20365;-74
2022/03/22 05:07:09;;;;;;;9.18;4.32;;;8.00;24.50;;;;;;4954272;28;20020;-74
2022/03/22 05:09:35;;;;;;;7.68;4.40;;;8.00;24.50;;;;;;4954666;29;20027;-74
2022/03/22 05:12:02;;;;;;;10.55;3.70;;;8.00;24.40;;;;;;4954990;28;20070;-74
2022/03/22 05:14:28;;;;;;;8.38;4.18;;;8.00;24.50;;;;;;4954509;28;20039;-74
2022/03/22 05:16:58;;;;;;;12.80;4.82;;;8.00;24.70;;;;;;4954969;28;20106;-74
2022/03/22 05:19:25;;;;;;;13.55;5.47;;;8.00;24.70;;;;;;4955330;28;20027;-74
2022/03/22 05:21:51;;;;;;;11.48;5.28;;;7.90;24.70;;;;;;4954086;28;20078;-74
2022/03/22 05:24:17;;;;;;;9.15;5.07;;;7.90;24.40;;;;;;4954829;28;20099;-73
2022/03/22 05:26:42;;;;;;;8.20;4.10;;;8.00;24.50;;;;;;4954871;28;20098;-74
2022/03/22 05:29:08;;;;;;;9.60;4.40;;;8.00;24.50;;;;;;4954849;28;20485;-74
2022/03/22 05:31:34;;;;;;;7.57;4.65;;;8.00;24.60;;;;;;4954503;28;20502;-74
2022/03/22 05:34:01;;;;;;;6.55;4.18;;;8.00;24.60;;;;;;4954177;28;20039;-74
2022/03/22 05:36:27;;;;;;;9.27;4.65;;;8.00;24.60;;;;;;4954114;28;20086;-74
2022/03/22 05:38:54;;;;;;;6.53;3.92;;;8.00;24.70;;;;;;4954812;29;20103;-74
2022/03/22 05:41:20;;;;;;;9.55;4.30;;;8.00;24.70;;;;;;4954310;28;20036;-73
2022/03/22 05:43:47;;;;;;;7.47;4.03;;;8.10;24.60;;;;;;4954210;28;20088;-74
2022/03/22 05:46:17;;;;;;;13.25;4.35;;;8.10;24.70;;;;;;4957534;28;20027;-74
2022/03/22 05:48:43;;;;;;;10.45;4.55;;;8.10;24.80;;;;;;4958632;28;20106;-74
2022/03/22 05:51:10;;;;;;;16.88;4.95;;;8.10;24.80;;;;;;4957143;28;20098;-74
2022/03/22 05:53:36;;;;;;;9.95;4.65;;;8.20;24.90;;;;;;4957793;28;20504;-74
2022/03/22 05:56:03;;;;;;;8.40;4.72;;;8.20;25.00;;;;;;4956497;28;20106;-74
2022/03/22 05:58:28;;;;;;;7.90;4.25;;;8.30;24.90;;;;;;4955842;29;20489;-74
2022/03/22 06:00:55;;;;;;;8.07;4.57;;;8.30;24.70;;;;;;4957756;28;20035;-74
2022/03/22 06:03:20;;;;;;;9.63;4.50;;;8.40;24.60;;;;;;4957703;28;20027;-74
2022/03/22 06:05:46;;;;;;;10.88;4.65;;;8.50;24.60;;;;;;4956693;29;20417;-74
2022/03/22 06:08:12;;;;;;;8.20;4.28;;;8.60;24.60;;;;;;4957728;28;20106;-74
2022/03/22 06:10:38;;;;;;;12.27;4.95;;;8.70;24.50;;;;;;4957926;29;20039;-74
2022/03/22 06:13:04;;;;;;;7.03;4.65;;;8.80;24.30;;;;;;4957619;29;20031;-74
2022/03/22 06:15:31;;;;;;;9.88;5.25;;;8.80;24.10;;;;;;4957479;29;20422;-74
2022/03/22 06:18:00;;;;;;;11.45;5.05;;;8.90;23.90;;;;;;4957695;28;20023;-74
2022/03/22 06:20:31;;;;;;;11.82;5.05;;;9.00;23.40;;;;;;4972299;28;20027;-74
2022/03/22 06:23:01;;;;;;;8.40;4.50;;;9.20;23.10;;;;;;4958117;28;20023;-75
2022/03/22 06:25:30;;;;;;;11.80;5.38;;;9.30;23.20;;;;;;4958096;28;20054;-75
2022/03/22 06:27:57;;;;;;;7.47;4.47;;;9.40;23.70;;;;;;4957625;28;20031;-74
2022/03/22 06:30:24;;;;;;;14.15;5.28;;;9.50;23.20;;;;;;4957937;29;20038;-74
2022/03/22 06:32:58;;;;;;;8.75;4.88;;;9.60;23.80;;;;;;4957723;29;20353;-74
2022/03/22 06:35:26;;;;;;;10.52;5.75;;;9.70;24.60;;;;;;4972314;28;20114;-75
2022/03/22 06:37:53;;;;;;;10.60;5.13;;;9.80;25.30;;;;;;4956558;28;20481;-75
2022/03/22 06:40:20;;;;;;;11.00;5.63;;;9.90;25.60;;;;;;4957407;28;20035;-74
2022/03/22 06:42:47;;;;;;;12.23;5.65;;;10.00;26.60;;;;;;4957272;28;20040;-74
2022/03/22 06:45:13;;;;;;;11.77;5.78;;;10.10;26.60;;;;;;4957073;28;20019;-75
2022/03/22 06:47:40;;;;;;;12.38;5.30;;;10.20;25.40;;;;;;4957319;28;20102;-74
2022/03/22 06:50:08;;;;;;;9.48;5.20;;;10.20;24.70;;;;;;4957411;28;20034;-74
2022/03/22 06:52:34;;;;;;;10.55;4.55;;;10.30;24.30;;;;;;4957226;29;20074;-74
2022/03/22 06:55:00;;;;;;;14.65;6.25;;;10.30;25.00;;;;;;4957123;29;20031;-74
2022/03/22 06:57:28;;;;;;;12.65;6.22;;;10.50;25.50;;;;;;4955888;28;20030;-74
2022/03/22 06:59:55;;;;;;;9.57;5.65;;;10.50;25.50;;;;;;4956950;29;20034;-74
2022/03/22 07:02:22;;;;;;;11.27;5.88;;;10.60;24.40;;;;;;4957200;28;20095;-74
2022/03/22 07:04:48;;;;;;;14.63;5.43;;;10.70;24.00;;;;;;4957044;28;20051;-74
2022/03/22 07:07:15;;;;;;;12.95;5.07;;;10.70;23.70;;;;;;4956587;29;20102;-74
2022/03/22 07:09:42;;;;;;;9.77;4.50;;;10.90;23.10;;;;;;4957116;28;20030;-74
2022/03/22 07:12:08;;;;;;;8.30;4.60;;;10.90;23.20;;;;;;4956608;28;20138;-74
2022/03/22 07:14:36;;;;;;;9.88;4.65;;;11.00;22.90;;;;;;4956956;29;20042;-74
2022/03/22 07:17:01;;;;;;;8.30;5.28;;;11.10;22.90;;;;;;4956874;29;20072;-74
2022/03/22 07:19:28;;;;;;;14.00;5.72;;;11.20;22.50;;;;;;4971414;28;20122;-74
2022/03/22 07:21:57;;;;;;;9.15;5.03;;;11.30;22.10;;;;;;4956579;28;20036;-74
2022/03/22 07:24:23;;;;;;;8.77;5.00;;;11.40;22.20;;;;;;4956800;29;20019;-74
2022/03/22 07:26:49;;;;;;;13.27;5.10;;;11.50;21.70;;;;;;4955400;29;20038;-74
2022/03/22 07:29:14;;;;;;;10.93;5.10;;;11.60;21.20;;;;;;4956101;29;20066;-74
2022/03/22 07:31:41;;;;;;;7.75;4.70;;;11.70;21.20;;;;;;4956552;28;20066;-74
2022/03/22 07:34:12;;;;;;;12.80;5.35;;;11.80;21.40;;;;;;4955347;28;20378;-74
2022/03/22 07:36:39;;;;;;;7.55;4.60;;;11.90;21.00;;;;;;4956336;28;20038;-74
2022/03/22 07:39:09;;;;;;;8.40;5.22;;;12.00;21.20;;;;;;4959553;28;20101;-74
2022/03/22 07:41:36;;;;;;;22.80;6.13;;;12.10;21.20;;;;;;4955082;29;20037;-74
2022/03/22 07:44:03;;;;;;;8.55;4.68;;;12.10;20.80;;;;;;4955246;29;20066;-74
2022/03/22 07:46:30;;;;;;;10.73;5.80;;;12.20;20.80;;;;;;4954836;29;20039;-74
2022/03/22 07:52:58;;;;;;;8.75;5.35;;;12.30;20.80;;;;;;4956275;28;20030;-74
2022/03/22 07:54:26;;;;;;;;;;;12.50;20.50;;;;;;4956943;29;20046;-74
2022/03/22 07:56:52;;;;;;;11.60;4.97;;;12.60;21.20;;;;;;4971145;28;19907;-74
2022/03/22 07:59:17;;;;;;;10.50;5.60;;;12.70;20.30;;;;;;4955378;28;20505;-74
2022/03/22 08:01:43;;;;;;;9.82;5.00;;;12.80;20.30;;;;;;4955945;28;20035;-74
2022/03/22 08:04:09;;;;;;;10.48;4.88;;;12.80;20.50;;;;;;4975426;28;20030;-74
2022/03/22 08:06:35;;;;;;;9.82;5.63;;;12.90;20.70;;;;;;4962242;28;20023;-74
2022/03/22 08:09:01;;;;;;;9.95;5.40;;;13.00;20.70;;;;;;4939239;28;20078;-74
2022/03/22 08:11:27;;;;;;;10.73;4.70;;;13.10;20.50;;;;;;4939818;29;20110;-74
2022/03/22 08:13:53;;;;;;;8.77;5.57;;;13.10;20.70;;;;;;4962119;28;20034;-74
2022/03/22 08:16:18;;;;;;;8.07;5.18;;;13.20;21.20;;;;;;4961822;28;20567;-74
2022/03/22 08:18:44;;;;;;;9.55;4.63;;;13.30;20.70;;;;;;4970806;28;20055;-74
2022/03/22 08:21:10;;;;;;;10.35;5.10;;;13.30;20.80;;;;;;4955486;28;20424;-74
2022/03/22 08:23:36;;;;;;;11.00;5.10;;;13.40;20.70;;;;;;4958411;28;20023;-74
2022/03/22 08:26:02;;;;;;;9.57;4.80;;;13.40;20.60;;;;;;4946223;28;20046;-74
2022/03/22 08:28:27;;;;;;;8.73;5.10;;;13.50;20.60;;;;;;4955346;28;20437;-74
2022/03/22 08:30:53;;;;;;;8.10;5.15;;;13.60;20.50;;;;;;4955246;29;20102;-74
2022/03/22 08:33:19;;;;;;;7.18;4.97;;;13.70;20.40;;;;;;4955304;29;20416;-74
2022/03/22 08:35:47;;;;;;;6.93;4.57;;;13.70;20.60;;;;;;4955034;28;20035;-74
2022/03/22 08:38:15;;;;;;;8.23;5.32;;;13.80;20.70;;;;;;4955171;28;20473;-74
2022/03/22 08:40:41;;;;;;;9.75;5.63;;;13.90;20.60;;;;;;4955553;28;20031;-74
2022/03/22 08:43:08;;;;;;;11.23;5.32;;;13.90;20.30;;;;;;4954476;28;20071;-74
2022/03/22 08:45:35;;;;;;;11.63;5.30;;;14.00;20.40;;;;;;4955409;28;20058;-74
2022/03/22 08:48:08;;;;;;;9.88;5.40;;;14.10;20.40;;;;;;4950961;29;20026;-74
2022/03/22 08:50:34;;;;;;;10.57;6.22;;;14.20;20.50;;;;;;4954079;28;20031;-74
2022/03/22 08:53:01;;;;;;;10.90;6.35;;;14.20;20.60;;;;;;4957792;28;20050;-74
2022/03/22 08:55:27;;;;;;;8.48;5.63;;;14.30;20.40;;;;;;4970078;28;20396;-74
2022/03/22 08:57:54;;;;;;;9.13;5.65;;;14.30;20.60;;;;;;4958578;28;20054;-74
2022/03/22 09:00:21;;;;;;;8.13;5.45;;;14.40;20.60;;;;;;4954360;28;20038;-74
2022/03/22 09:02:49;;;;;;;11.27;6.18;;;14.50;20.50;;;;;;4954819;28;20078;-74
2022/03/22 09:08:06;;;;;;;11.63;5.97;;;14.60;20.40;;;;;;4954281;29;20038;-74
2022/03/22 09:10:32;;;;;;;10.00;5.30;;;14.70;20.90;;;;;;4946875;29;20023;-74
2022/03/22 09:12:58;;;;;;;9.30;5.32;;;14.80;20.50;;;;;;4958197;28;20366;-75
2022/03/22 09:15:27;;;;;;;8.30;5.07;;;14.80;19.90;;;;;;4953803;28;20178;-74
2022/03/22 09:17:54;;;;;;;12.88;5.13;;;14.90;19.90;;;;;;4953335;29;20032;-74
2022/03/22 09:20:20;;;;;;;16.10;9.77;;;15.00;19.60;;;;;;4958751;28;20433;-74
2022/03/22 09:22:49;;;;;;;9.43;5.45;;;15.10;19.10;;;;;;4954323;28;20058;-74
2022/03/22 09:25:16;;;;;;;7.63;4.80;;;15.20;19.00;;;;;;4953899;28;20062;-74
2022/03/22 09:27:43;;;;;;;7.55;4.07;;;15.20;18.80;;;;;;4962761;28;20030;-74
2022/03/22 09:30:10;;;;;;;8.52;3.90;;;15.30;18.30;;;;;;4960507;28;20063;-75
2022/03/22 09:32:37;;;;;;;9.23;4.63;;;15.40;17.80;;;;;;4964588;28;20385;-75
2022/03/22 09:35:06;;;;;;;6.47;3.83;;;15.50;17.90;;;;;;4954970;28;20027;-74
2022/03/22 09:37:33;;;;;;;7.85;4.30;;;15.60;18.00;;;;;;4952270;28;20071;-74
2022/03/22 09:39:59;;;;;;;8.05;4.32;;;15.70;17.90;;;;;;4960402;28;20401;-74
2022/03/22 09:42:27;;;;;;;8.00;4.53;;;15.80;17.30;;;;;;4952343;29;20030;-73
2022/03/22 09:44:53;;;;;;;5.47;3.80;;;15.80;17.40;;;;;;4947396;28;20024;-74
2022/03/22 09:47:19;;;;;;;7.18;4.47;;;15.90;17.00;;;;;;4952426;28;20438;-74
2022/03/22 09:49:45;;;;;;;8.50;3.70;;;16.00;17.20;;;;;;4955021;28;20066;-74
2022/03/22 09:52:12;;;;;;;6.20;3.47;;;16.10;16.90;;;;;;4973976;28;20029;-75
2022/03/22 09:54:39;;;;;;;11.27;4.32;;;16.20;16.90;;;;;;4953140;28;20118;-74
2022/03/22 09:57:05;;;;;;;6.07;3.65;;;16.20;16.80;;;;;;4952334;28;20027;-74
2022/03/22 09:59:36;;;;;;;5.28;3.30;;;16.30;16.50;;;;;;4961414;28;20488;-74
2022/03/22 10:02:03;;;;;;;4.70;3.35;;;16.40;16.30;;;;;;4953256;28;20031;-74
2022/03/22 10:04:40;;;;;;;9.30;3.72;;;16.40;15.90;;;;;;4944351;29;20124;-74
2022/03/22 10:07:07;;;;;;;6.03;3.33;;;16.50;16.00;;;;;;4954158;28;20561;-74
2022/03/22 10:09:39;;;;;;;9.75;3.67;;;16.60;16.10;;;;;;4953530;28;20031;-74
2022/03/22 10:12:12;;;;;;;5.97;3.25;;;16.60;16.40;;;;;;4954057;28;20062;-75
2022/03/22 10:14:41;;;;;;;6.93;3.47;;;16.70;16.40;;;;;;4968895;28;20397;-74
2022/03/22 10:17:13;;;;;;;5.43;3.42;;;16.70;16.20;;;;;;4949935;29;20028;-74
2022/03/22 10:19:47;;;;;;;11.32;3.42;;;16.80;16.20;;;;;;4953738;28;20062;-74
2022/03/22 10:22:13;;;;;;;5.65;3.50;;;16.90;16.30;;;;;;4939465;29;20027;-74
2022/03/22 10:24:48;;;;;;;15.10;3.80;;;17.00;16.50;;;;;;4965267;28;20073;-74
2022/03/22 10:27:20;;;;;;;7.30;4.38;;;17.00;16.60;;;;;;4956204;28;20115;-74
2022/03/22 10:29:46;;;;;;;8.27;4.68;;;17.10;16.20;;;;;;4966480;28;20086;-74
2022/03/22 10:32:12;;;;;;;6.47;4.20;;;17.20;16.50;;;;;;4956280;28;20106;-74
2022/03/22 10:34:37;;;;;;;8.00;4.03;;;17.20;16.00;;;;;;4957565;28;20027;-74
2022/03/22 10:37:04;;;;;;;4.90;3.22;;;17.30;16.00;;;;;;4958049;28;20042;-74
2022/03/22 10:39:29;;;;;;;6.68;3.53;;;17.40;15.90;;;;;;4952121;28;20058;-74
2022/03/22 10:42:05;;;;;;;8.00;3.28;;;17.40;15.90;;;;;;4954273;29;20489;-74
2022/03/22 10:44:35;;;;;;;3.75;2.92;;;17.40;15.30;;;;;;4955947;29;20038;-74
2022/03/22 10:47:07;;;;;;;4.78;2.80;;;17.50;15.20;;;;;;4957404;28;20366;-75
2022/03/22 10:49:32;;;;;;;6.10;2.55;;;17.60;15.00;;;;;;4957717;28;20038;-74
2022/03/22 10:51:58;;;;;;;6.57;2.75;;;17.60;14.80;;;;;;4957883;28;20043;-75
2022/03/22 10:54:24;;;;;;;3.78;2.63;;;17.70;14.40;;;;;;4957957;28;20098;-75
2022/03/22 10:56:56;;;;;;;5.85;2.33;;;17.80;14.40;;;;;;4972096;28;20400;-75
2022/03/22 10:59:24;;;;;;;7.03;2.83;;;17.80;14.70;;;;;;4957161;28;20051;-75
2022/03/22 11:01:51;;;;;;;4.38;2.45;;;17.90;14.10;;;;;;4956059;29;20031;-75
2022/03/22 11:04:19;;;;;;;3.70;2.40;;;17.90;14.50;;;;;;4964864;28;20078;-76
2022/03/22 11:06:49;;;;;;;3.65;2.53;;;18.00;14.10;;;;;;4955846;29;20029;-73
2022/03/22 11:09:17;;;;;;;5.15;2.28;;;18.00;14.20;;;;;;4957340;28;20101;-73
2022/03/22 11:11:44;;;;;;;4.63;2.85;;;18.00;13.60;;;;;;4956601;28;20381;-75
2022/03/22 11:14:13;;;;;;;3.83;2.47;;;18.10;13.20;;;;;;4957092;28;20049;-72
2022/03/22 11:16:40;;;;;;;4.20;2.50;;;18.10;13.00;;;;;;4956214;28;20023;-73
2022/03/22 11:19:08;;;;;;;4.05;2.55;;;18.20;13.60;;;;;;4950334;29;20366;-75
2022/03/22 11:21:36;;;;;;;6.25;2.30;;;18.30;13.50;;;;;;4956379;28;20065;-75
2022/03/22 11:24:11;;;;;;;3.75;2.55;;;18.30;13.30;;;;;;4955993;28;20497;-75
2022/03/22 11:26:45;;;;;;;5.63;2.70;;;18.30;12.80;;;;;;4956682;28;20027;-75
2022/03/22 11:29:12;;;;;;;;;;;18.40;13.00;;;;;;4971581;28;20389;-75
2022/03/22 11:31:39;;;;;;;4.07;2.15;;;18.40;14.20;;;;;;4956778;28;20403;-76
2022/03/22 11:34:09;;;;;;;9.20;2.75;;;18.50;13.50;;;;;;4956713;28;20386;-77
2022/03/22 11:36:45;;;;;;;6.53;2.50;;;18.50;12.80;;;;;;4957747;28;20023;-75
2022/03/22 11:42:15;;;;;;;4.75;2.53;;;18.60;12.90;;;;;;4938889;29;20402;-75
2022/03/22 11:42:18;;;;;;;4.05;1.90;;;18.60;12.70;;;;;;4937258;29;20574;-73
2022/03/22 11:44:56;;;;;;;7.43;2.50;;;18.60;12.70;;;;;;4936524;29;20067;-75
2022/03/22 11:47:22;;;;;;;4.97;2.65;;;18.70;12.90;;;;;;4954923;29;20154;-73
2022/03/22 11:49:55;;;;;;;4.57;2.55;;;18.70;12.70;;;;;;4955977;28;20069;-73
2022/03/22 11:52:24;;;;;;;7.28;2.58;;;18.80;12.90;;;;;;4955997;28;20031;-75
2022/03/22 11:55:10;;;;;;;7.10;2.33;;;18.80;13.10;;;;;;4971103;28;20031;-73
2022/03/22 11:57:55;;;;;;;3.70;2.58;;;18.90;12.70;;;;;;4954080;29;20031;-73
2022/03/22 12:00:58;;;;;;;7.68;2.50;;;18.90;12.60;;;;;;4954769;29;20042;-73
2022/03/22 12:03:31;;;;;;;2.85;2.20;;;19.00;12.70;;;;;;4955308;28;20023;-73
2022/03/22 12:05:58;;;;;;;4.03;2.42;;;19.10;12.70;;;;;;4956258;28;20031;-74
2022/03/22 12:08:25;;;;;;;5.43;2.72;;;19.10;12.70;;;;;;4954725;29;20034;-73
2022/03/22 12:10:59;;;;;;;12.55;2.85;;;19.10;12.50;;;;;;4955886;28;20054;-73
2022/03/22 12:13:26;;;;;;;4.68;2.75;;;19.20;12.60;;;;;;4969357;28;20393;-74
2022/03/22 12:15:59;;;;;;;3.92;2.17;;;19.20;12.40;;;;;;4956255;28;20023;-74
2022/03/22 12:18:29;;;;;;;4.80;2.83;;;19.30;12.60;;;;;;4955805;28;20027;-74
2022/03/22 12:20:58;;;;;;;7.30;2.65;;;19.40;12.60;;;;;;4951268;29;20422;-74
2022/03/22 12:23:26;;;;;;;6.07;2.55;;;19.40;12.40;;;;;;4936941;29;20027;-74
2022/03/22 12:25:52;;;;;;;2.90;2.20;;;19.40;12.40;;;;;;4953144;29;20030;-74
2022/03/22 12:28:18;;;;;;;5.78;2.88;;;19.50;12.70;;;;;;4955828;28;20023;-73
2022/03/22 12:30:45;;;;;;;5.35;2.45;;;19.50;12.70;;;;;;4955797;28;20058;-74
2022/03/22 12:33:18;;;;;;;5.43;2.55;;;19.50;12.70;;;;;;4955440;28;20038;-74
2022/03/22 12:35:46;;;;;;;9.10;2.60;;;19.60;12.40;;;;;;4955916;28;20027;-73
2022/03/22 12:38:12;;;;;;;6.55;2.67;;;19.60;13.20;;;;;;4955772;28;20428;-74
2022/03/22 12:40:38;;;;;;;3.25;2.20;;;19.70;12.70;;;;;;4970268;28;20035;-74
2022/03/22 12:43:12;;;;;;;5.05;2.30;;;19.70;12.40;;;;;;4970287;28;20020;-74
2022/03/22 12:45:43;;;;;;;6.63;3.28;;;19.70;12.00;;;;;;4969934;28;20027;-73
2022/03/22 12:48:09;;;;;;;3.78;2.63;;;19.80;11.90;;;;;;4955569;28;20030;-74
2022/03/22 12:50:35;;;;;;;5.78;3.28;;;19.80;12.10;;;;;;4955333;28;20151;-74
2022/03/22 12:53:01;;;;;;;4.35;2.55;;;19.90;12.30;;;;;;4954910;28;20090;-74
2022/03/22 12:55:27;;;;;;;6.25;2.83;;;19.90;12.40;;;;;;4954795;28;20023;-73
2022/03/22 12:57:56;;;;;;;4.75;2.92;;;19.90;12.20;;;;;;4953136;28;20126;-74
2022/03/22 13:00:33;;;;;;;6.13;3.13;;;19.90;12.20;;;;;;4954785;28;20548;-74
2022/03/22 13:03:08;;;;;;;6.25;3.30;;;19.90;12.40;;;;;;4955046;29;20031;-74
2022/03/22 13:05:40;;;;;;;4.38;3.03;;;20.00;12.40;;;;;;4953792;29;20381;-74
2022/03/22 13:08:23;;;;;;;5.55;3.20;;;20.00;12.50;;;;;;4955207;28;20019;-74
2022/03/22 13:16:28;;;;;;;5.95;3.30;;;20.10;12.40;;;;;;4954948;29;20593;-74
2022/03/22 13:18:57;;;;;;;5.57;2.90;;;20.10;12.40;;;;;;4954741;28;20034;-74
2022/03/22 13:21:31;;;;;;;6.93;2.70;;;20.20;12.80;;;;;;4954978;29;20082;-74
2022/03/22 13:24:17;;;;;;;3.00;2.58;;;20.20;12.80;;;;;;4954561;28;20031;-74